createdAt,value
2022-08-25T03:16:29.853Z,85.10
2022-08-25T03:19:39.406Z,85.39
2022-08-25T03:22:49.699Z,85.74
2022-08-25T03:26:10.252Z,85.62
2022-08-25T03:29:20.287Z,85.69
2022-08-25T03:32:31.190Z,86.14
2022-08-25T03:35:40.993Z,86.60
2022-08-25T03:38:50.835Z,86.21
2022-08-25T03:42:00.392Z,86.92
2022-08-25T03:45:11.639Z,87.36
2022-08-25T03:48:22.434Z,87.56
2022-08-25T03:51:34.718Z,88.80
2022-08-25T03:54:44.207Z,89.02
2022-08-25T03:57:55.220Z,89.98
2022-08-25T04:01:04.769Z,89.57
2022-08-25T04:04:16.946Z,89.62
2022-08-25T04:07:26.416Z,89.26
2022-08-25T04:10:37.409Z,89.21
2022-08-25T04:13:48.997Z,89.69
2022-08-25T04:16:58.806Z,90.77
2022-08-25T04:20:13.988Z,90.45
2022-08-25T04:23:23.831Z,90.66
2022-08-25T04:26:37.033Z,91.21
2022-08-25T04:29:46.503Z,91.65
2022-08-25T04:32:55.990Z,92.18
2022-08-25T04:36:12.394Z,91.64
2022-08-25T04:39:22.480Z,91.66
2022-08-25T04:42:31.998Z,91.93
2022-08-25T04:45:41.724Z,91.99
2022-08-25T04:48:52.737Z,92.16
2022-08-25T04:52:03.703Z,93.33
2022-08-25T04:55:13.845Z,93.20
2022-08-25T04:58:23.365Z,93.16
2022-08-25T06:36:50.397Z,86.73
2022-08-25T06:40:00.247Z,86.13
2022-08-25T06:43:10.017Z,85.60
2022-08-25T06:46:22.264Z,84.94
2022-08-25T06:49:46.826Z,84.81
2022-08-25T06:52:57.841Z,83.90
2022-08-25T06:56:08.484Z,83.40
2022-08-25T06:59:18.699Z,82.02
2022-08-25T07:02:28.502Z,81.25
2022-08-25T07:05:43.694Z,79.84
2022-08-25T07:08:55.351Z,76.66
2022-08-25T07:12:05.657Z,76.26
2022-08-25T07:15:20.545Z,75.56
2022-08-25T07:18:30.777Z,74.30
2022-08-25T07:21:42.437Z,73.96
2022-08-25T07:24:56.397Z,72.04
2022-08-25T07:28:05.874Z,71.35
2022-08-25T07:31:15.770Z,71.10
2022-08-25T07:34:36.339Z,70.39
2022-08-25T07:37:50.886Z,69.13
2022-08-25T07:41:04.905Z,69.31
2022-08-25T07:44:14.861Z,67.87
2022-08-25T07:47:24.359Z,67.25
2022-08-25T07:50:34.514Z,66.30
2022-08-25T07:53:44.640Z,65.73
2022-08-25T07:56:55.485Z,65.00
2022-08-25T08:00:06.715Z,63.66
2022-08-25T08:03:35.483Z,62.63
2022-08-25T08:06:51.795Z,62.00
2022-08-25T08:10:29.650Z,62.12
2022-08-25T08:13:35.719Z,61.43
2022-08-25T08:16:49.482Z,60.98
2022-08-25T08:19:59.383Z,60.53
2022-08-25T08:23:08.908Z,60.33
2022-08-25T08:26:19.272Z,59.79
2022-08-25T08:29:30.080Z,59.31
2022-08-25T08:33:06.217Z,58.78
2022-08-25T08:36:12.538Z,57.71
2022-08-25T08:39:22.163Z,56.72
2022-08-25T08:42:47.581Z,54.59
2022-08-25T08:45:58.539Z,53.47
2022-08-25T08:49:22.877Z,53.54
2022-08-25T08:52:43.686Z,53.04
2022-08-25T08:55:56.774Z,51.63
2022-08-25T08:59:11.441Z,49.94
2022-08-25T09:02:39.163Z,48.52
2022-08-25T09:06:01.807Z,47.77
2022-08-25T09:09:15.002Z,46.39
2022-08-25T09:12:37.908Z,45.27
2022-08-25T09:16:10.433Z,46.32
2022-08-25T09:19:47.097Z,46.01
2022-08-25T09:23:04.034Z,45.75
2022-08-25T09:26:30.475Z,44.13
2022-08-25T09:29:55.385Z,45.92
2022-08-25T09:33:05.512Z,43.92
2022-08-25T09:36:16.612Z,43.84
2022-08-25T09:39:29.434Z,42.25
2022-08-25T09:42:49.906Z,42.25
2022-08-25T09:46:02.819Z,41.85
2022-08-25T09:49:16.755Z,42.22
2022-08-25T09:52:33.114Z,41.52
2022-08-25T09:55:44.738Z,42.94
2022-08-25T09:59:03.024Z,43.46
2022-08-25T10:02:25.257Z,42.95
2022-08-25T10:05:44.016Z,41.48
2022-08-25T10:08:59.953Z,40.93
2022-08-25T10:12:21.054Z,41.65
2022-08-25T10:15:36.251Z,42.02
2022-08-25T10:18:45.901Z,42.60
2022-08-25T10:22:06.420Z,40.25
2022-08-25T10:25:30.671Z,41.92
2022-08-25T10:28:56.880Z,40.37
2022-08-25T10:32:32.841Z,39.83
2022-08-25T10:35:53.544Z,37.85
2022-08-25T10:39:03.906Z,36.97
2022-08-25T10:42:42.864Z,36.90
2022-08-25T10:46:03.755Z,35.88
2022-08-25T10:49:19.331Z,36.04
2022-08-25T10:52:38.908Z,36.90
2022-08-25T10:56:00.626Z,37.95
2022-08-25T10:59:22.648Z,37.64
2022-08-25T11:02:58.642Z,38.04
2022-08-25T11:06:16.345Z,37.18
2022-08-25T11:09:32.778Z,37.69
2022-08-25T11:12:51.096Z,38.08
2022-08-25T11:16:17.597Z,38.43
2022-08-25T11:19:33.975Z,38.65
2022-08-25T11:22:46.884Z,38.28
2022-08-25T11:26:02.929Z,38.30
2022-08-25T11:29:15.917Z,39.17
2022-08-25T11:32:27.596Z,38.03
2022-08-25T11:35:44.015Z,38.11
2022-08-25T11:39:06.771Z,38.33
2022-08-25T11:42:30.155Z,37.06
2022-08-25T11:45:54.079Z,36.75
2022-08-25T11:49:31.504Z,36.90
2022-08-25T11:52:56.531Z,37.29
2022-08-25T11:56:09.366Z,36.34
2022-08-25T11:59:48.620Z,36.42
2022-08-25T12:03:01.526Z,35.67
2022-08-25T12:06:21.134Z,35.22
2022-08-25T12:09:30.747Z,35.09
2022-08-25T12:12:59.789Z,35.65
2022-08-25T12:16:37.778Z,35.03
2022-08-25T12:19:53.455Z,34.57
2022-08-25T12:23:04.779Z,35.31
2022-08-25T12:26:41.701Z,35.05
2022-08-25T12:30:02.232Z,35.08
2022-08-25T12:33:24.848Z,35.14
2022-08-25T12:36:35.962Z,34.74
2022-08-25T12:39:58.821Z,34.54
2022-08-25T12:43:12.252Z,34.24
2022-08-25T12:46:35.183Z,33.98
2022-08-25T12:49:44.708Z,33.65
2022-08-25T12:52:56.377Z,33.54
2022-08-25T12:56:10.741Z,33.83
2022-08-25T12:59:22.689Z,34.21
2022-08-25T13:02:54.193Z,33.54
2022-08-25T13:06:16.056Z,33.56
2022-08-25T13:10:02.841Z,34.03
2022-08-25T13:13:23.860Z,33.94
2022-08-25T13:16:34.066Z,33.42
2022-08-25T13:19:43.681Z,33.44
2022-08-25T13:22:58.103Z,33.04
2022-08-25T13:26:07.687Z,33.12
2022-08-25T13:29:23.980Z,33.51
2022-08-25T13:32:36.100Z,33.05
2022-08-25T13:35:50.015Z,32.97
2022-08-25T13:39:12.505Z,33.32
2022-08-25T13:42:28.651Z,33.48
2022-08-25T13:45:42.362Z,32.23
2022-08-25T13:49:03.841Z,31.68
2022-08-25T13:52:24.252Z,32.22
2022-08-25T13:55:51.190Z,32.32
2022-08-25T13:59:04.360Z,32.73
2022-08-25T14:02:19.651Z,32.22
2022-08-25T14:05:36.070Z,32.99
2022-08-25T14:08:49.002Z,32.08
2022-08-25T14:12:04.577Z,32.18
2022-08-25T14:15:32.070Z,32.40
2022-08-25T14:18:51.085Z,32.79
2022-08-25T14:22:02.076Z,33.71
2022-08-25T14:25:12.598Z,35.67
2022-08-25T14:28:24.136Z,36.12
2022-08-25T14:31:39.268Z,36.57
2022-08-25T14:34:50.568Z,36.73
2022-08-25T14:38:10.882Z,37.87
2022-08-25T14:41:20.599Z,37.82
2022-08-25T14:44:30.148Z,37.94
2022-08-25T14:47:41.011Z,38.33
2022-08-25T14:50:52.474Z,39.07
2022-08-25T14:54:05.655Z,38.77
2022-08-25T14:57:15.323Z,39.10
2022-08-25T15:00:26.213Z,39.74
2022-08-25T15:03:39.673Z,38.95
2022-08-25T15:06:54.123Z,38.98
2022-08-25T15:10:02.885Z,39.86
2022-08-25T15:13:14.617Z,38.91
2022-08-25T15:16:33.842Z,39.86
2022-08-25T15:19:45.065Z,39.24
2022-08-25T15:22:56.771Z,38.44
2022-08-25T15:26:09.108Z,38.14
2022-08-25T15:29:19.335Z,38.18
2022-08-25T15:32:28.906Z,37.75
2022-08-25T15:35:38.617Z,38.46
2022-08-25T15:38:49.442Z,37.81
2022-08-25T15:41:58.917Z,39.12
2022-08-25T15:45:09.443Z,37.73
2022-08-25T15:48:18.947Z,38.70
2022-08-25T15:51:29.294Z,38.27
2022-08-25T15:54:40.885Z,37.24
2022-08-25T15:57:51.569Z,37.63
2022-08-25T16:01:01.839Z,38.85
2022-08-25T16:04:12.592Z,38.90
2022-08-25T16:07:22.125Z,39.36
2022-08-25T16:10:36.452Z,38.39
2022-08-25T16:13:46.271Z,38.21
2022-08-25T16:16:58.007Z,37.46
2022-08-25T16:20:13.702Z,37.47
2022-08-25T16:23:23.708Z,37.28
2022-08-25T16:26:36.280Z,36.90
2022-08-25T16:29:45.849Z,38.08
2022-08-25T16:32:55.355Z,38.51
2022-08-25T16:36:07.502Z,40.46
2022-08-25T16:39:18.206Z,40.76
2022-08-25T16:42:29.822Z,41.19
2022-08-25T16:45:39.403Z,41.94
2022-08-25T16:48:50.326Z,41.93
2022-08-25T16:51:59.852Z,42.62
2022-08-25T16:55:12.910Z,42.63
2022-08-25T16:58:23.659Z,42.30
2022-08-25T17:01:35.229Z,41.07
2022-08-25T17:04:44.832Z,40.65
2022-08-25T17:08:06.545Z,41.28
2022-08-25T17:11:18.427Z,40.10
2022-08-25T17:14:29.372Z,40.07
2022-08-25T17:17:38.861Z,40.50
2022-08-25T17:20:51.151Z,40.76
2022-08-25T17:24:01.179Z,40.69
2022-08-25T17:27:14.448Z,40.87
2022-08-25T17:30:27.726Z,41.33
2022-08-25T17:33:38.134Z,42.96
2022-08-25T17:36:48.241Z,45.12
2022-08-25T17:40:02.634Z,46.26
2022-08-25T17:46:21.802Z,47.21
2022-08-25T17:49:32.068Z,48.07
2022-08-25T17:52:41.935Z,49.25
2022-08-25T17:56:00.243Z,49.96
2022-08-25T17:59:11.862Z,49.88
2022-08-25T18:02:23.027Z,51.18
2022-08-25T18:05:33.697Z,51.76
2022-08-25T18:08:44.322Z,52.83
2022-08-25T18:11:54.184Z,53.46
2022-08-25T18:15:05.575Z,53.44
2022-08-25T18:18:17.317Z,53.78
2022-08-25T18:21:30.682Z,54.18
2022-08-25T18:24:40.785Z,54.97
2022-08-25T18:27:50.691Z,55.02
2022-08-25T18:31:00.817Z,56.11
2022-08-25T18:34:13.507Z,56.41
2022-08-25T18:37:34.605Z,56.49
2022-08-25T18:40:44.684Z,56.83
2022-08-25T18:43:54.783Z,57.29
2022-08-25T18:47:07.378Z,57.83
2022-08-25T18:50:19.286Z,58.27
2022-08-25T18:53:37.362Z,59.47
2022-08-25T18:56:59.813Z,59.60
2022-08-25T19:00:12.551Z,59.82
2022-08-25T19:03:23.416Z,60.05
2022-08-25T19:06:37.150Z,59.54
2022-08-25T19:09:47.090Z,59.80
2022-08-25T19:13:02.233Z,60.94
2022-08-25T19:16:30.790Z,61.45
2022-08-25T19:19:40.695Z,61.60
2022-08-25T19:22:52.858Z,61.76
2022-08-25T19:26:02.749Z,62.32
2022-08-25T19:29:16.495Z,62.15
2022-08-25T19:32:26.633Z,62.64
2022-08-25T19:35:40.977Z,62.27
2022-08-25T19:38:53.344Z,62.42
2022-08-25T19:42:03.644Z,63.81
